METAR Formatted Surface Weather Observation
Issued by NWS

Home | Current Version | Previous Version | Text Only | Print | Product List | Glossary On
Versions: 1 2 3 4 5 6 7 8 9 10 11 12 13 14
000
SAUS44 KEWX 240452
MTRHDO
METAR KHDO 240451Z AUTO 14010KT 10SM CLR 27/22 A3012 RMK AO2 SLP184
T02670217 TSNO



USA.gov is the U.S. government's official web portal to all federal, state and local government web resources and services.